Time;durP1;ratioP1;P1;durP2;ratioP2;P2;SDS_P1;SDS_P2;PMS_P1;PMS_P2;Temp;Humidity;BMP_temperature;BMP_pressure;BME280_temperature;BME280_humidity;BME280_pressure;Samples;Min_cycle;Max_cycle;Signal;HPM_P1;HPM_P2
2022/08/21 00:00:39;;;;;;;6.70;6.00;;;19.50;99.90;;;;;;5035142;28;20172;-68
2022/08/21 00:03:07;;;;;;;6.13;4.67;;;19.50;99.90;;;;;;5052947;28;20167;-68
2022/08/21 00:05:36;;;;;;;5.90;4.73;;;19.50;99.90;;;;;;5052442;28;20396;-68
2022/08/21 00:08:03;;;;;;;7.57;5.07;;;19.50;99.90;;;;;;5052744;28;20403;-68
2022/08/21 00:10:29;;;;;;;5.90;4.40;;;19.50;99.90;;;;;;5052747;28;20455;-68
2022/08/21 00:12:55;;;;;;;6.67;4.83;;;19.40;99.90;;;;;;5052758;28;20523;-68
2022/08/21 00:15:26;;;;;;;8.87;5.40;;;19.40;99.90;;;;;;5052368;28;20640;-68
2022/08/21 00:17:52;;;;;;;4.43;4.03;;;19.40;99.90;;;;;;5052623;28;20167;-68
2022/08/21 00:20:18;;;;;;;6.03;4.40;;;19.40;99.90;;;;;;5034665;28;20410;-69
2022/08/21 00:22:44;;;;;;;5.50;5.00;;;19.40;99.90;;;;;;5052435;28;20415;-68
2022/08/21 00:25:11;;;;;;;4.87;4.47;;;19.40;99.90;;;;;;5052491;28;20255;-68
2022/08/21 00:27:38;;;;;;;6.37;5.13;;;19.40;99.90;;;;;;5052350;28;20946;-68
2022/08/21 00:30:06;;;;;;;5.23;4.83;;;19.40;99.90;;;;;;5052472;28;20461;-68
2022/08/21 00:32:33;;;;;;;4.97;3.97;;;19.30;99.90;;;;;;5052248;28;20743;-68
2022/08/21 00:34:58;;;;;;;6.23;5.10;;;19.30;99.90;;;;;;5051998;28;20737;-68
2022/08/21 00:37:25;;;;;;;5.37;4.87;;;19.30;99.90;;;;;;5052454;28;20434;-68
2022/08/21 00:39:50;;;;;;;8.93;4.30;;;19.30;99.90;;;;;;5052561;28;20223;-68
2022/08/21 00:42:17;;;;;;;8.20;6.33;;;19.30;99.90;;;;;;5052307;28;20810;-68
2022/08/21 00:44:45;;;;;;;4.30;3.90;;;19.20;99.90;;;;;;5052066;28;20547;-68
2022/08/21 00:47:11;;;;;;;4.67;4.10;;;19.30;99.90;;;;;;5052169;28;20435;-68
2022/08/21 00:49:37;;;;;;;4.67;4.23;;;19.20;99.90;;;;;;5051237;28;20442;-68
2022/08/21 00:52:08;;;;;;;5.00;4.50;;;19.20;99.90;;;;;;5051845;28;20454;-68
2022/08/21 00:54:35;;;;;;;5.20;4.70;;;19.20;99.90;;;;;;5034027;28;20475;-68
2022/08/21 00:57:06;;;;;;;8.40;5.80;;;19.20;99.90;;;;;;5052168;28;20904;-68
2022/08/21 00:59:35;;;;;;;7.60;4.47;;;19.20;99.90;;;;;;5052291;28;20414;-68
2022/08/21 01:02:03;;;;;;;6.10;5.03;;;19.20;99.90;;;;;;5051949;28;20797;-68
2022/08/21 01:04:29;;;;;;;6.20;5.60;;;19.20;99.90;;;;;;5051902;28;20469;-68
2022/08/21 01:06:54;;;;;;;5.17;4.67;;;19.20;99.90;;;;;;5051575;28;20944;-68
2022/08/21 01:09:20;;;;;;;5.27;4.60;;;19.10;99.90;;;;;;5051925;28;20239;-68
2022/08/21 01:11:47;;;;;;;5.73;4.93;;;19.10;99.90;;;;;;5052156;28;20159;-68
2022/08/21 01:14:14;;;;;;;5.03;4.63;;;19.10;99.90;;;;;;5051865;28;20404;-68
2022/08/21 01:16:46;;;;;;;5.70;4.90;;;19.00;99.90;;;;;;5051461;28;20920;-68
2022/08/21 01:19:12;;;;;;;6.77;5.20;;;19.00;99.90;;;;;;5049729;28;20778;-68
2022/08/21 01:21:38;;;;;;;5.93;5.30;;;18.90;99.90;;;;;;5051763;28;20927;-68
2022/08/21 01:24:04;;;;;;;7.17;6.23;;;18.90;99.90;;;;;;5051881;28;20431;-68
2022/08/21 01:26:34;;;;;;;6.83;4.97;;;18.80;99.90;;;;;;5051422;28;20255;-68
2022/08/21 01:29:21;;;;;;;6.27;4.80;;;18.80;99.90;;;;;;5051895;28;20439;-68
2022/08/21 01:31:47;;;;;;;6.20;5.60;;;18.80;99.90;;;;;;5051603;28;20491;-68
2022/08/21 01:34:15;;;;;;;5.20;4.70;;;18.70;99.90;;;;;;5051468;28;21023;-68
2022/08/21 01:36:41;;;;;;;5.77;5.27;;;18.70;99.90;;;;;;5051141;28;20595;-68
2022/08/21 01:39:07;;;;;;;5.10;4.50;;;18.70;99.90;;;;;;5051538;28;20978;-68
2022/08/21 01:41:33;;;;;;;5.43;4.93;;;18.60;99.90;;;;;;5051651;28;20444;-68
2022/08/21 01:43:58;;;;;;;5.77;4.37;;;18.60;99.90;;;;;;5051433;28;20171;-68
2022/08/21 01:46:24;;;;;;;5.37;4.87;;;18.60;99.90;;;;;;5051241;28;20418;-68
2022/08/21 01:48:50;;;;;;;5.00;4.37;;;18.50;99.90;;;;;;5051478;28;20601;-68
2022/08/21 01:51:15;;;;;;;4.70;4.30;;;18.50;99.90;;;;;;5051447;28;20252;-68
2022/08/21 01:53:41;;;;;;;6.60;4.90;;;18.40;99.90;;;;;;5051475;28;20179;-68
2022/08/21 01:56:09;;;;;;;5.20;4.70;;;18.40;99.90;;;;;;5051130;28;20183;-68
2022/08/21 01:58:34;;;;;;;5.97;3.73;;;18.40;99.90;;;;;;5051651;28;20254;-68
2022/08/21 02:01:01;;;;;;;4.50;3.53;;;18.40;99.90;;;;;;5053425;28;20854;-68
2022/08/21 02:03:30;;;;;;;6.80;3.80;;;18.30;99.90;;;;;;5055316;28;20585;-68
2022/08/21 02:05:56;;;;;;;4.10;3.70;;;18.30;99.90;;;;;;5054803;28;20448;-68
2022/08/21 02:08:23;;;;;;;5.53;4.50;;;18.30;99.90;;;;;;5055636;28;20753;-69
2022/08/21 02:10:49;;;;;;;8.87;4.47;;;18.20;99.90;;;;;;5055370;28;20918;-69
2022/08/21 02:13:14;;;;;;;4.73;4.40;;;18.20;99.90;;;;;;5055053;28;20409;-69
2022/08/21 02:15:40;;;;;;;4.13;3.73;;;18.20;99.90;;;;;;5054895;28;20450;-68
2022/08/21 02:18:06;;;;;;;4.80;3.90;;;18.20;99.90;;;;;;5055142;28;20172;-68
2022/08/21 02:20:45;;;;;;;4.87;4.37;;;18.10;99.90;;;;;;5054940;28;20181;-69
2022/08/21 02:23:11;;;;;;;3.57;3.27;;;18.10;99.90;;;;;;5055057;28;20422;-68
2022/08/21 02:25:37;;;;;;;4.47;3.33;;;18.10;99.90;;;;;;5054848;28;20818;-68
2022/08/21 02:28:06;;;;;;;3.93;3.53;;;18.10;99.90;;;;;;5055147;28;20410;-68
2022/08/21 02:30:34;;;;;;;3.77;3.47;;;18.00;99.90;;;;;;5055076;28;20492;-68
2022/08/21 02:33:00;;;;;;;4.20;3.40;;;18.00;99.90;;;;;;5054596;28;20461;-68
2022/08/21 02:35:26;;;;;;;4.63;4.23;;;18.00;99.90;;;;;;5054523;28;20496;-68
2022/08/21 02:37:55;;;;;;;3.90;3.30;;;17.90;99.90;;;;;;5055218;28;20170;-68
2022/08/21 02:40:24;;;;;;;5.20;3.40;;;17.90;99.90;;;;;;5054647;28;20543;-68
2022/08/21 02:42:50;;;;;;;3.33;3.10;;;17.90;99.90;;;;;;5054686;28;20398;-69
2022/08/21 02:45:17;;;;;;;6.13;4.37;;;17.90;99.90;;;;;;5054544;28;20428;-69
2022/08/21 02:48:03;;;;;;;4.27;3.93;;;17.90;99.90;;;;;;5054227;28;20418;-68
2022/08/21 02:50:34;;;;;;;4.73;3.63;;;17.80;99.90;;;;;;5054569;28;20460;-68
2022/08/21 02:53:00;;;;;;;5.40;4.07;;;17.80;99.90;;;;;;5054805;28;20769;-68
2022/08/21 02:55:27;;;;;;;7.03;3.57;;;17.80;99.90;;;;;;5054182;28;20419;-68
2022/08/21 02:57:54;;;;;;;7.30;3.60;;;17.70;99.90;;;;;;5054443;28;20451;-67
2022/08/21 03:00:21;;;;;;;4.20;3.60;;;17.70;99.90;;;;;;5054340;28;20907;-67
2022/08/21 03:02:47;;;;;;;3.83;3.10;;;17.70;99.90;;;;;;5054365;28;20416;-68
2022/08/21 03:05:14;;;;;;;4.10;3.70;;;17.60;99.90;;;;;;5053851;28;20416;-68
2022/08/21 03:07:41;;;;;;;4.27;3.60;;;17.60;99.90;;;;;;5054260;28;20429;-68
2022/08/21 03:10:08;;;;;;;4.70;3.03;;;17.50;99.90;;;;;;5054504;28;20449;-67
2022/08/21 03:12:35;;;;;;;6.83;4.43;;;17.50;99.90;;;;;;5053248;28;20429;-67
2022/08/21 03:15:06;;;;;;;3.67;3.37;;;17.50;99.90;;;;;;5054201;28;20413;-67
2022/08/21 03:17:32;;;;;;;4.27;3.97;;;17.50;99.90;;;;;;5054279;28;20838;-68
2022/08/21 03:19:58;;;;;;;5.50;3.07;;;17.50;99.90;;;;;;5054447;28;20407;-68
2022/08/21 03:22:24;;;;;;;3.53;2.97;;;17.40;99.90;;;;;;5054300;28;20174;-68
2022/08/21 03:24:49;;;;;;;4.07;2.97;;;17.40;99.90;;;;;;5053730;28;20910;-68
2022/08/21 03:27:15;;;;;;;5.57;3.30;;;17.40;99.90;;;;;;5053595;28;20428;-68
2022/08/21 03:29:40;;;;;;;3.70;2.93;;;17.40;99.90;;;;;;5053910;28;20202;-68
2022/08/21 03:32:09;;;;;;;3.73;3.30;;;17.30;99.90;;;;;;5053745;28;20515;-68
2022/08/21 03:34:35;;;;;;;3.20;3.00;;;17.30;99.90;;;;;;5053772;28;20173;-68
2022/08/21 03:37:01;;;;;;;2.93;2.73;;;17.30;99.90;;;;;;5053466;28;20439;-68
2022/08/21 03:39:26;;;;;;;3.43;3.10;;;17.30;99.90;;;;;;5053892;28;20409;-67
2022/08/21 03:41:53;;;;;;;4.27;2.90;;;17.30;99.90;;;;;;5053900;28;20202;-67
2022/08/21 03:44:19;;;;;;;3.73;3.27;;;17.20;99.90;;;;;;5053929;28;20173;-68
2022/08/21 03:46:45;;;;;;;3.33;3.10;;;17.20;99.90;;;;;;5053803;28;20436;-68
2022/08/21 03:49:10;;;;;;;3.37;3.07;;;17.20;99.90;;;;;;5053965;28;20200;-69
2022/08/21 03:51:36;;;;;;;4.17;2.80;;;17.10;99.90;;;;;;5053463;28;20629;-67
2022/08/21 03:54:02;;;;;;;4.17;3.30;;;17.10;99.90;;;;;;5053341;28;20175;-67
2022/08/21 03:56:27;;;;;;;3.20;3.00;;;17.10;99.90;;;;;;5052733;28;20200;-67
2022/08/21 03:58:53;;;;;;;3.00;2.70;;;17.10;99.90;;;;;;5053284;28;20253;-67
2022/08/21 04:01:18;;;;;;;3.37;2.20;;;17.10;99.90;;;;;;5053178;28;20173;-67
2022/08/21 04:03:44;;;;;;;3.30;2.63;;;17.00;99.90;;;;;;5053247;28;20639;-68
2022/08/21 04:06:10;;;;;;;3.00;2.80;;;17.00;99.90;;;;;;5052782;28;20304;-68
2022/08/21 04:08:35;;;;;;;3.67;2.80;;;17.00;99.90;;;;;;5053489;28;20616;-68
2022/08/21 04:11:01;;;;;;;3.57;2.47;;;17.00;99.90;;;;;;5052991;28;20196;-68
2022/08/21 04:13:27;;;;;;;4.17;2.90;;;17.00;99.90;;;;;;5052906;28;20204;-68
2022/08/21 04:15:54;;;;;;;8.50;3.47;;;17.00;99.90;;;;;;5052456;28;20456;-68
2022/08/21 04:18:20;;;;;;;3.87;3.07;;;17.00;99.90;;;;;;5052801;28;20392;-68
2022/08/21 04:20:50;;;;;;;4.93;2.70;;;17.00;99.90;;;;;;5052873;28;20449;-68
2022/08/21 04:23:17;;;;;;;4.43;3.10;;;17.00;99.90;;;;;;5052841;28;20400;-69
2022/08/21 04:25:43;;;;;;;2.73;2.20;;;16.90;99.90;;;;;;5052257;28;20419;-69
2022/08/21 04:28:09;;;;;;;4.70;2.50;;;16.90;99.90;;;;;;5052622;28;20444;-69
2022/08/21 04:30:35;;;;;;;3.10;2.80;;;16.90;99.90;;;;;;5052490;28;20650;-68
2022/08/21 04:33:00;;;;;;;3.50;2.90;;;16.90;99.90;;;;;;5052580;28;20205;-68
2022/08/21 04:35:27;;;;;;;3.20;2.57;;;17.00;99.90;;;;;;5052344;28;20177;-67
2022/08/21 04:37:53;;;;;;;2.37;2.17;;;17.00;99.90;;;;;;5052528;28;20227;-68
2022/08/21 04:40:21;;;;;;;3.00;2.60;;;17.10;99.90;;;;;;5052362;28;20412;-68
2022/08/21 04:42:53;;;;;;;4.70;2.93;;;17.10;99.90;;;;;;5052566;28;20927;-68
2022/08/21 04:45:24;;;;;;;3.70;2.87;;;17.10;99.90;;;;;;5052139;28;20436;-68
2022/08/21 04:47:51;;;;;;;5.20;2.50;;;17.10;99.90;;;;;;5052543;28;20411;-68
2022/08/21 04:50:17;;;;;;;2.13;2.00;;;17.10;99.90;;;;;;5052260;28;20456;-67
2022/08/21 04:52:43;;;;;;;5.33;2.63;;;17.10;99.90;;;;;;5052167;28;20966;-68
2022/08/21 04:55:09;;;;;;;2.60;2.40;;;17.10;99.90;;;;;;5051729;28;20448;-68
2022/08/21 04:57:35;;;;;;;2.53;2.33;;;17.10;99.90;;;;;;5052241;28;20421;-68
2022/08/21 05:00:03;;;;;;;3.10;2.50;;;17.20;99.90;;;;;;5052561;28;20176;-68
2022/08/21 05:02:29;;;;;;;4.17;2.60;;;17.20;99.90;;;;;;5052128;28;20428;-68
2022/08/21 05:04:55;;;;;;;2.20;2.10;;;17.20;99.90;;;;;;5051684;28;20416;-67
2022/08/21 05:07:26;;;;;;;3.00;2.50;;;17.20;99.90;;;;;;5085371;22;20353;-76
2022/08/21 05:09:53;;;;;;;6.60;2.27;;;17.10;99.90;;;;;;5074771;28;20472;-74
2022/08/21 05:12:19;;;;;;;3.67;2.83;;;17.10;99.90;;;;;;5081842;28;20464;-75
2022/08/21 05:14:44;;;;;;;5.80;2.50;;;17.10;99.90;;;;;;5071985;28;20403;-74
2022/08/21 05:17:10;;;;;;;3.60;2.70;;;17.20;99.90;;;;;;5073136;28;20273;-75
2022/08/21 05:19:36;;;;;;;4.03;2.50;;;17.10;99.90;;;;;;5073950;28;20227;-75
2022/08/21 05:22:02;;;;;;;3.53;2.30;;;17.20;99.90;;;;;;5075156;28;20172;-75
2022/08/21 05:24:28;;;;;;;4.93;2.10;;;17.20;99.90;;;;;;5079527;28;20410;-73
2022/08/21 05:26:54;;;;;;;4.37;2.43;;;17.10;99.90;;;;;;5076223;28;20851;-74
2022/08/21 05:29:20;;;;;;;3.77;2.00;;;17.20;99.90;;;;;;5056123;28;20482;-77
2022/08/21 05:31:46;;;;;;;9.80;2.27;;;17.20;99.90;;;;;;5073641;28;20172;-75
2022/08/21 05:34:14;;;;;;;2.50;2.23;;;17.30;99.90;;;;;;5053609;28;20165;-77
2022/08/21 05:36:39;;;;;;;4.27;2.50;;;17.40;99.90;;;;;;5078049;28;20514;-77
2022/08/21 05:39:05;;;;;;;2.70;2.30;;;17.40;99.90;;;;;;5078927;28;20449;-77
2022/08/21 05:41:30;;;;;;;3.10;2.47;;;17.50;99.90;;;;;;5078999;28;20647;-75
2022/08/21 05:43:56;;;;;;;2.77;2.27;;;17.50;99.90;;;;;;5078969;28;20170;-75
2022/08/21 05:46:21;;;;;;;3.10;2.40;;;17.50;99.90;;;;;;5079559;28;20216;-76
2022/08/21 05:48:47;;;;;;;3.00;1.90;;;17.50;99.90;;;;;;5061631;28;20295;-75
2022/08/21 05:51:14;;;;;;;2.03;1.93;;;17.60;99.90;;;;;;5079124;28;20177;-75
2022/08/21 05:53:41;;;;;;;3.20;2.43;;;17.60;99.90;;;;;;5079572;28;20640;-75
2022/08/21 05:56:08;;;;;;;2.83;2.17;;;17.70;99.90;;;;;;5078502;28;20438;-75
2022/08/21 05:58:34;;;;;;;4.63;2.33;;;17.60;99.90;;;;;;5078696;28;20461;-75
2022/08/21 06:01:00;;;;;;;4.03;2.07;;;17.70;99.90;;;;;;5078413;28;20399;-74
2022/08/21 06:03:30;;;;;;;1.73;1.60;;;17.80;99.90;;;;;;5078267;28;20400;-75
2022/08/21 06:05:57;;;;;;;3.80;1.77;;;17.80;99.90;;;;;;5078099;28;20403;-76
2022/08/21 06:08:23;;;;;;;2.53;1.57;;;17.90;99.90;;;;;;5078348;28;20493;-75
2022/08/21 06:10:50;;;;;;;2.50;1.90;;;17.90;99.90;;;;;;5078136;28;20548;-76
2022/08/21 06:13:18;;;;;;;6.33;1.93;;;18.00;99.90;;;;;;5077985;28;20421;-75
2022/08/21 06:15:44;;;;;;;3.47;1.83;;;18.10;99.90;;;;;;5077916;28;20412;-75
2022/08/21 06:18:10;;;;;;;2.60;1.93;;;18.00;99.90;;;;;;5078024;28;20475;-76
2022/08/21 06:20:36;;;;;;;1.90;1.40;;;18.10;99.90;;;;;;5078053;28;20403;-76
2022/08/21 06:23:02;;;;;;;2.30;2.10;;;18.20;99.90;;;;;;5078557;28;20411;-76
2022/08/21 06:25:28;;;;;;;2.33;1.80;;;18.40;99.90;;;;;;5078318;28;20169;-73
2022/08/21 06:28:01;;;;;;;1.80;1.40;;;18.30;99.90;;;;;;5078362;28;20242;-76
2022/08/21 06:30:27;;;;;;;5.90;2.00;;;18.30;99.90;;;;;;5078547;28;20559;-76
2022/08/21 06:32:52;;;;;;;3.50;1.73;;;18.50;99.90;;;;;;5078600;28;20799;-75
2022/08/21 06:35:18;;;;;;;5.20;2.30;;;18.60;99.90;;;;;;5077758;28;20392;-74
2022/08/21 06:37:43;;;;;;;4.53;2.10;;;18.70;99.90;;;;;;5078058;28;20191;-75
2022/08/21 06:40:09;;;;;;;6.67;2.27;;;18.60;99.90;;;;;;5078319;28;20174;-75
2022/08/21 06:42:35;;;;;;;3.53;2.00;;;18.80;99.90;;;;;;5078122;28;20553;-75
2022/08/21 06:45:00;;;;;;;2.27;2.00;;;18.70;99.90;;;;;;5077829;28;20406;-76
2022/08/21 06:47:26;;;;;;;3.50;2.20;;;18.90;99.90;;;;;;5075231;28;20187;-75
2022/08/21 06:49:52;;;;;;;6.93;2.17;;;19.10;99.90;;;;;;5076008;28;20301;-76
2022/08/21 06:52:17;;;;;;;7.23;2.50;;;19.10;99.90;;;;;;5075744;28;20630;-76
2022/08/21 06:54:43;;;;;;;3.63;2.13;;;19.40;99.90;;;;;;5075840;28;20167;-76
2022/08/21 06:57:09;;;;;;;6.87;2.27;;;19.20;99.90;;;;;;5078291;28;20198;-76
2022/08/21 06:59:34;;;;;;;2.13;1.77;;;19.60;99.90;;;;;;5078898;28;20173;-76
2022/08/21 07:02:00;;;;;;;2.70;1.70;;;19.80;99.90;;;;;;5075326;28;20449;-76
2022/08/21 07:04:26;;;;;;;2.73;1.73;;;19.70;99.90;;;;;;5075005;28;20184;-76
2022/08/21 07:06:51;;;;;;;3.10;1.60;;;19.80;99.90;;;;;;5074186;28;20578;-76
2022/08/21 07:09:17;;;;;;;2.60;1.60;;;19.90;99.90;;;;;;5074761;28;20446;-75
2022/08/21 07:11:47;;;;;;;3.50;2.20;;;20.10;99.90;;;;;;5074610;28;20195;-75
2022/08/21 07:14:13;;;;;;;3.70;1.60;;;20.60;99.90;;;;;;5074701;28;20168;-75
2022/08/21 07:16:38;;;;;;;3.10;1.80;;;20.80;99.90;;;;;;5073826;28;20506;-77
2022/08/21 07:19:04;;;;;;;2.60;1.70;;;21.10;99.90;;;;;;5075287;28;20172;-76
2022/08/21 07:21:29;;;;;;;4.20;1.67;;;21.20;99.90;;;;;;5073998;28;20172;-75
2022/08/21 07:23:55;;;;;;;1.70;1.20;;;21.40;99.90;;;;;;5074278;28;20165;-75
2022/08/21 07:26:22;;;;;;;4.50;1.37;;;21.40;99.90;;;;;;5073854;28;20656;-77
2022/08/21 07:28:49;;;;;;;3.13;1.60;;;22.00;99.90;;;;;;5074135;28;20664;-76
2022/08/21 07:31:17;;;;;;;3.43;1.27;;;21.80;99.90;;;;;;5074083;28;20555;-76
2022/08/21 07:33:43;;;;;;;4.10;1.23;;;22.20;99.90;;;;;;5073885;28;20553;-76
2022/08/21 07:36:09;;;;;;;5.33;2.40;;;22.30;99.90;;;;;;5073420;28;20403;-76
2022/08/21 07:38:35;;;;;;;6.17;1.63;;;22.20;99.90;;;;;;5074727;28;20428;-77
2022/08/21 07:41:05;;;;;;;2.93;1.27;;;22.50;99.90;;;;;;5077010;28;20457;-77
2022/08/21 07:43:31;;;;;;;2.10;1.30;;;22.60;99.90;;;;;;5076186;28;20682;-77
2022/08/21 07:45:57;;;;;;;1.80;1.23;;;22.90;99.90;;;;;;5073406;28;20500;-76
2022/08/21 07:48:22;;;;;;;3.23;1.30;;;22.70;99.90;;;;;;5073968;28;20249;-77
2022/08/21 07:50:49;;;;;;;2.27;1.30;;;22.20;99.90;;;;;;5073427;28;20196;-75
2022/08/21 07:53:15;;;;;;;1.40;1.07;;;22.30;99.90;;;;;;5074413;28;20219;-77
2022/08/21 07:55:41;;;;;;;2.30;1.37;;;22.60;99.90;;;;;;5074058;28;20498;-76
2022/08/21 07:58:07;;;;;;;1.77;1.30;;;22.80;99.90;;;;;;5055570;28;20527;-76
2022/08/21 08:00:33;;;;;;;4.00;1.10;;;22.60;99.90;;;;;;5055909;28;20195;-77
2022/08/21 08:02:58;;;;;;;1.50;1.40;;;22.80;99.90;;;;;;5074163;28;20167;-76
2022/08/21 08:05:28;;;;;;;1.07;0.97;;;23.40;99.90;;;;;;5073443;28;20166;-76
2022/08/21 08:07:54;;;;;;;1.43;0.90;;;23.10;99.90;;;;;;5074515;28;20527;-76
2022/08/21 08:10:21;;;;;;;1.47;1.10;;;23.30;99.90;;;;;;5073562;28;20998;-75
2022/08/21 08:12:47;;;;;;;1.60;1.30;;;23.50;99.90;;;;;;5073624;28;20419;-76
2022/08/21 08:15:19;;;;;;;1.40;1.20;;;23.80;99.90;;;;;;5073518;28;20423;-78
2022/08/21 08:17:44;;;;;;;2.30;1.33;;;24.10;99.90;;;;;;5073351;28;20416;-76
2022/08/21 08:20:12;;;;;;;2.63;1.10;;;23.80;99.90;;;;;;5073342;28;20602;-76
2022/08/21 08:22:39;;;;;;;1.47;0.97;;;23.40;99.90;;;;;;5055751;28;20175;-76
2022/08/21 08:25:06;;;;;;;1.70;1.60;;;23.50;99.90;;;;;;5054601;28;20405;-76
2022/08/21 08:27:32;;;;;;;2.30;1.37;;;23.30;99.90;;;;;;5072937;28;20439;-76
2022/08/21 08:29:58;;;;;;;2.17;0.90;;;23.50;99.90;;;;;;5073124;28;20465;-76
2022/08/21 08:32:23;;;;;;;1.77;1.30;;;23.80;99.90;;;;;;5072810;28;20796;-76
2022/08/21 08:34:51;;;;;;;3.00;1.37;;;24.40;99.90;;;;;;5073370;28;20161;-74
2022/08/21 08:37:18;;;;;;;1.23;1.00;;;24.50;99.90;;;;;;5077660;28;20186;-76
2022/08/21 08:39:44;;;;;;;1.67;0.90;;;24.20;99.90;;;;;;5076244;28;20400;-76
2022/08/21 08:42:24;;;;;;;1.23;1.07;;;24.40;99.90;;;;;;5061579;28;20461;-76
2022/08/21 08:45:12;;;;;;;1.77;1.00;;;24.30;99.90;;;;;;5076439;28;20169;-75
2022/08/21 08:47:44;;;;;;;2.33;1.43;;;24.10;99.90;;;;;;5073462;28;20416;-76
2022/08/21 08:50:22;;;;;;;1.77;1.13;;;24.60;99.90;;;;;;5072316;28;20455;-76
2022/08/21 08:53:08;;;;;;;2.13;1.20;;;24.30;99.90;;;;;;5072652;28;20402;-76
2022/08/21 08:55:42;;;;;;;1.57;1.00;;;24.00;99.90;;;;;;5072312;28;20404;-77
2022/08/21 08:58:24;;;;;;;3.27;1.20;;;23.70;99.90;;;;;;5072302;28;20418;-75
2022/08/21 09:00:53;;;;;;;3.37;1.20;;;23.70;99.90;;;;;;5072347;28;20449;-75
2022/08/21 09:03:20;;;;;;;2.80;1.50;;;23.90;99.90;;;;;;5072071;28;20400;-75
2022/08/21 09:05:52;;;;;;;2.93;2.03;;;23.20;99.90;;;;;;5072071;28;20481;-77
2022/08/21 09:08:54;;;;;;;2.50;1.33;;;23.60;99.90;;;;;;5072352;28;20452;-77
2022/08/21 09:11:32;;;;;;;2.43;1.20;;;23.20;99.90;;;;;;5040984;28;20988;-75
2022/08/21 09:14:14;;;;;;;3.90;1.20;;;23.60;99.90;;;;;;5072770;28;20440;-76
2022/08/21 09:16:46;;;;;;;2.47;1.33;;;23.80;99.90;;;;;;5072010;28;20719;-76
2022/08/21 09:19:33;;;;;;;3.80;1.83;;;24.10;99.90;;;;;;5072196;28;20484;-76
2022/08/21 09:22:16;;;;;;;1.67;1.10;;;23.80;99.90;;;;;;5072906;28;20426;-75
2022/08/21 09:25:21;;;;;;;1.70;1.20;;;23.90;99.90;;;;;;5073020;28;20396;-77
2022/08/21 09:27:46;;;;;;;2.13;1.30;;;23.30;99.90;;;;;;5072559;28;20759;-77
2022/08/21 09:30:12;;;;;;;1.40;1.10;;;22.80;99.90;;;;;;5073018;28;20496;-75
2022/08/21 09:32:39;;;;;;;3.50;1.30;;;23.40;99.90;;;;;;5072412;28;20190;-76
2022/08/21 09:35:17;;;;;;;1.67;1.30;;;23.60;99.90;;;;;;5071825;28;20187;-75
2022/08/21 09:37:56;;;;;;;2.27;1.33;;;23.70;99.90;;;;;;5072647;28;20423;-76
2022/08/21 09:40:36;;;;;;;2.30;1.40;;;23.60;99.90;;;;;;5072644;28;20775;-76
2022/08/21 09:43:09;;;;;;;1.67;1.43;;;23.10;99.90;;;;;;5072083;28;20451;-76
2022/08/21 09:45:35;;;;;;;2.33;1.43;;;23.10;99.90;;;;;;5072006;28;20777;-76
2022/08/21 09:48:15;;;;;;;2.13;1.10;;;22.70;99.90;;;;;;5072010;28;20468;-76
2022/08/21 09:50:42;;;;;;;2.70;1.27;;;22.90;99.90;;;;;;5071303;28;20877;-76
2022/08/21 09:53:42;;;;;;;1.10;0.87;;;22.80;99.90;;;;;;5071904;28;20411;-75
2022/08/21 09:59:34;;;;;;;3.23;1.23;;;23.40;99.90;;;;;;5072068;28;20414;-76
2022/08/21 10:02:14;;;;;;;2.70;1.50;;;23.50;99.90;;;;;;5071626;28;20932;-75
2022/08/21 10:04:45;;;;;;;2.30;1.40;;;23.70;99.90;;;;;;5071364;28;20430;-75
2022/08/21 10:07:14;;;;;;;3.00;1.30;;;23.90;99.90;;;;;;5071239;28;20503;-76
2022/08/21 10:09:41;;;;;;;1.70;1.30;;;23.70;99.90;;;;;;5071614;28;20477;-77
2022/08/21 10:12:22;;;;;;;3.60;1.53;;;23.80;99.90;;;;;;5071820;28;20406;-76
2022/08/21 10:15:06;;;;;;;4.20;1.20;;;23.70;99.90;;;;;;5071640;28;20422;-75
2022/08/21 10:17:43;;;;;;;1.13;1.03;;;23.70;99.90;;;;;;5071310;28;20428;-76
2022/08/21 10:20:28;;;;;;;2.90;1.57;;;24.10;99.90;;;;;;5071573;28;20982;-76
2022/08/21 10:22:54;;;;;;;2.27;1.40;;;23.60;99.90;;;;;;5075363;28;20404;-76
2022/08/21 10:25:32;;;;;;;1.23;1.13;;;23.50;99.90;;;;;;5075991;28;20722;-75
2022/08/21 10:28:10;;;;;;;1.60;0.93;;;23.70;99.90;;;;;;5076138;28;20570;-76
2022/08/21 10:30:49;;;;;;;3.13;1.13;;;23.40;99.90;;;;;;5077670;28;20452;-76
2022/08/21 10:33:41;;;;;;;1.97;1.20;;;24.00;99.90;;;;;;5082172;28;20395;-75
2022/08/21 10:36:21;;;;;;;1.67;1.10;;;23.60;99.90;;;;;;5074740;28;20444;-76
2022/08/21 10:39:00;;;;;;;2.13;1.53;;;23.40;99.90;;;;;;5075469;28;20802;-75
2022/08/21 10:41:46;;;;;;;1.43;1.10;;;23.60;99.90;;;;;;5077817;28;20944;-77
2022/08/21 10:44:34;;;;;;;1.63;1.20;;;23.90;99.90;;;;;;5077138;28;20395;-77
2022/08/21 10:47:08;;;;;;;5.77;1.60;;;24.00;99.90;;;;;;5077254;28;20476;-76
2022/08/21 10:49:52;;;;;;;1.57;1.13;;;24.20;99.90;;;;;;5080522;28;20456;-75
2022/08/21 10:52:36;;;;;;;3.07;1.30;;;24.40;99.90;;;;;;5075662;28;20396;-77
2022/08/21 10:55:26;;;;;;;3.47;1.60;;;24.30;99.90;;;;;;5075466;28;20392;-75
2022/08/21 10:57:55;;;;;;;2.83;1.20;;;24.00;99.90;;;;;;5057779;28;20962;-76
2022/08/21 11:00:26;;;;;;;1.23;1.00;;;24.10;99.90;;;;;;5075093;28;20493;-76
2022/08/21 11:02:58;;;;;;;1.53;1.10;;;24.70;99.90;;;;;;5075632;28;20487;-76
2022/08/21 11:05:47;;;;;;;2.50;1.30;;;24.40;99.90;;;;;;5075446;28;20737;-78
2022/08/21 11:08:19;;;;;;;2.60;1.30;;;24.20;99.40;;;;;;5068986;22;20575;-68
2022/08/21 11:10:57;;;;;;;3.90;1.17;;;23.90;99.90;;;;;;5034533;28;20448;-68
2022/08/21 11:13:31;;;;;;;1.33;0.97;;;24.20;99.90;;;;;;5035070;28;20402;-69
2022/08/21 11:16:10;;;;;;;2.23;1.03;;;24.40;99.40;;;;;;5034799;28;20406;-69
2022/08/21 11:18:41;;;;;;;1.30;1.10;;;24.80;98.70;;;;;;5034998;28;20488;-67
2022/08/21 11:21:09;;;;;;;1.43;1.10;;;25.10;96.50;;;;;;5034451;28;20397;-67
2022/08/21 11:23:52;;;;;;;1.50;1.10;;;25.40;95.90;;;;;;5034498;28;20411;-68
2022/08/21 11:26:31;;;;;;;1.70;1.00;;;24.90;95.20;;;;;;5034357;28;20423;-68
2022/08/21 11:29:13;;;;;;;2.50;1.33;;;25.10;94.80;;;;;;5033841;28;20551;-68
2022/08/21 11:32:01;;;;;;;1.23;0.90;;;24.70;95.40;;;;;;5034520;28;20408;-67
2022/08/21 11:34:44;;;;;;;2.10;1.00;;;25.50;93.70;;;;;;4995987;28;20414;-69
2022/08/21 11:37:40;;;;;;;1.60;0.87;;;25.40;91.00;;;;;;5033661;28;20420;-66
2022/08/21 11:40:18;;;;;;;1.10;0.83;;;25.10;91.50;;;;;;5015851;28;20419;-66
2022/08/21 11:42:55;;;;;;;2.17;1.03;;;24.70;92.20;;;;;;5033586;28;20481;-67
2022/08/21 11:45:50;;;;;;;1.10;1.00;;;24.70;93.40;;;;;;5033807;28;20408;-67
2022/08/21 11:48:48;;;;;;;3.07;1.10;;;24.70;93.60;;;;;;5033451;28;20523;-67
2022/08/21 11:51:22;;;;;;;1.00;0.90;;;24.70;92.90;;;;;;5033331;28;20417;-67
2022/08/21 11:54:14;;;;;;;2.40;1.43;;;24.80;93.80;;;;;;5033551;28;20401;-67
2022/08/21 11:56:53;;;;;;;1.60;0.90;;;25.20;93.30;;;;;;5033209;28;20481;-67
2022/08/21 11:59:46;;;;;;;1.40;0.93;;;24.80;93.20;;;;;;5033451;28;20413;-67
2022/08/21 12:02:20;;;;;;;1.07;0.97;;;25.20;92.30;;;;;;5033294;28;20400;-67
2022/08/21 12:04:59;;;;;;;2.20;1.10;;;25.20;94.10;;;;;;5033229;28;20896;-67
2022/08/21 12:07:37;;;;;;;1.47;1.20;;;25.70;92.90;;;;;;5033042;28;20444;-67
2022/08/21 12:10:20;;;;;;;1.17;0.90;;;25.20;90.80;;;;;;5033069;28;20946;-67
2022/08/21 12:12:46;;;;;;;4.67;1.37;;;25.20;91.10;;;;;;5032965;28;20396;-68
2022/08/21 12:15:20;;;;;;;1.00;0.80;;;24.70;92.10;;;;;;5032760;28;20772;-67
2022/08/21 12:17:52;;;;;;;1.13;0.83;;;25.10;91.50;;;;;;5033074;28;20187;-67
2022/08/21 12:20:25;;;;;;;1.37;1.00;;;25.50;90.50;;;;;;5033113;28;20402;-68
2022/08/21 12:23:04;;;;;;;2.17;1.20;;;25.50;90.50;;;;;;5033000;28;20402;-68
2022/08/21 12:25:42;;;;;;;1.33;1.10;;;25.50;90.90;;;;;;5032614;28;20774;-68
2022/08/21 12:28:15;;;;;;;1.00;0.80;;;25.50;90.30;;;;;;5032651;28;20438;-67
2022/08/21 12:30:45;;;;;;;1.83;1.00;;;25.40;89.20;;;;;;5032677;28;20995;-67
2022/08/21 12:33:31;;;;;;;1.20;1.10;;;25.60;90.30;;;;;;5032699;28;20398;-68
2022/08/21 12:36:20;;;;;;;2.10;1.00;;;25.40;88.50;;;;;;5032391;28;20887;-68
2022/08/21 12:38:57;;;;;;;2.13;1.00;;;25.80;89.80;;;;;;5032533;28;20478;-67
2022/08/21 12:41:32;;;;;;;1.03;0.77;;;25.30;87.00;;;;;;5032290;28;20548;-67
2022/08/21 12:44:08;;;;;;;0.80;0.80;;;25.30;87.00;;;;;;5032790;28;20427;-67
2022/08/21 12:46:45;;;;;;;1.63;1.37;;;25.30;88.10;;;;;;5031333;28;20402;-68
2022/08/21 12:49:19;;;;;;;0.90;0.63;;;25.40;88.10;;;;;;5032424;28;20459;-67
2022/08/21 12:52:00;;;;;;;1.13;1.03;;;25.70;87.60;;;;;;5032321;28;20930;-67
2022/08/21 12:54:29;;;;;;;1.90;0.97;;;25.40;83.90;;;;;;5032608;28;20412;-67
2022/08/21 12:57:04;;;;;;;1.13;0.90;;;25.60;84.70;;;;;;5032234;28;20427;-67
2022/08/21 12:59:30;;;;;;;1.30;1.10;;;25.40;83.90;;;;;;5032360;28;20390;-67
2022/08/21 13:02:00;;;;;;;1.80;1.10;;;25.40;84.50;;;;;;5032438;28;20402;-67
2022/08/21 13:04:38;;;;;;;1.87;0.83;;;25.10;85.30;;;;;;5032023;28;20407;-68
2022/08/21 13:07:10;;;;;;;3.37;1.10;;;24.90;88.00;;;;;;5031892;28;20510;-68